Time;durP1;ratioP1;P1;durP2;ratioP2;P2;SDS_P1;SDS_P2;PMS_P1;PMS_P2;Temp;Humidity;BMP_temperature;BMP_pressure;BME280_temperature;BME280_humidity;BME280_pressure;Samples;Min_cycle;Max_cycle;Signal;HPM_P1;HPM_P2
2023/07/21 00:00:21;;;;;;;10.70;9.77;;;;;;;21.61;76.29;92728.41;5037403;28;20253;-70
2023/07/21 00:02:48;;;;;;;10.07;9.25;;;;;;;21.57;76.01;92715.03;5049183;28;20196;-70
2023/07/21 00:05:15;;;;;;;9.52;8.93;;;;;;;21.62;76.31;92727.31;5048605;28;20240;-70
2023/07/21 00:07:40;;;;;;;9.98;9.18;;;;;;;21.62;76.40;92719.31;5049478;28;20207;-70
2023/07/21 00:10:07;;;;;;;9.55;8.63;;;;;;;21.65;76.90;92711.41;5049088;28;20237;-70
2023/07/21 00:12:40;;;;;;;9.27;8.50;;;;;;;21.66;76.77;92714.84;5053533;28;20196;-70
2023/07/21 00:15:07;;;;;;;9.75;8.95;;;;;;;21.55;77.05;92709.28;5048951;28;20227;-70
2023/07/21 00:17:34;;;;;;;10.68;9.65;;;;;;;21.49;77.77;92704.56;5065411;28;20190;-70
2023/07/21 00:20:09;;;;;;;10.90;9.88;;;;;;;21.37;78.64;92707.31;5043139;28;20264;-70
2023/07/21 00:22:35;;;;;;;10.20;9.45;;;;;;;21.34;78.30;92700.03;5028685;28;20251;-70
2023/07/21 00:25:01;;;;;;;10.90;9.80;;;;;;;21.04;78.10;92665.16;5030165;28;20232;-71
2023/07/21 00:27:27;;;;;;;10.65;9.85;;;;;;;21.41;78.49;92694.88;5032666;28;20212;-69
2023/07/21 00:29:52;;;;;;;12.55;9.90;;;;;;;21.38;78.86;92693.69;5045436;28;20350;-70
2023/07/21 00:32:18;;;;;;;11.02;10.02;;;;;;;21.31;78.46;92692.75;5053030;28;20188;-70
2023/07/21 00:34:44;;;;;;;10.13;9.25;;;;;;;21.22;78.46;92700.09;5053915;28;20230;-70
2023/07/21 00:37:10;;;;;;;10.90;9.90;;;;;;;21.00;78.55;92684.72;5052838;28;20256;-70
2023/07/21 00:39:36;;;;;;;10.93;9.93;;;;;;;21.12;78.81;92695.28;5052260;28;20187;-71
2023/07/21 00:42:04;;;;;;;11.63;10.65;;;;;;;21.10;78.32;92686.91;5052831;28;20880;-70
2023/07/21 00:44:30;;;;;;;9.95;9.05;;;;;;;20.93;78.81;92698.56;5053137;28;20184;-70
2023/07/21 00:46:55;;;;;;;11.25;10.32;;;;;;;21.03;79.26;92702.66;5052637;28;20206;-70
2023/07/21 00:49:20;;;;;;;13.18;8.13;;;;;;;21.11;78.20;92689.19;5061469;28;20228;-70
2023/07/21 00:51:46;;;;;;;10.68;9.68;;;;;;;21.07;78.68;92698.97;5052831;28;20225;-70
2023/07/21 00:54:11;;;;;;;10.23;9.23;;;;;;;21.13;78.20;92681.69;5052947;28;20202;-70
2023/07/21 00:56:37;;;;;;;11.38;10.27;;;;;;;21.20;78.53;92687.16;5052504;28;20232;-70
2023/07/21 00:59:03;;;;;;;10.60;9.75;;;;;;;21.10;78.35;92670.97;5052537;28;20187;-71
2023/07/21 01:01:29;;;;;;;10.38;9.60;;;;;;;21.00;78.07;92669.56;5051891;28;20247;-70
2023/07/21 01:03:55;;;;;;;10.73;9.60;;;;;;;21.03;77.77;92681.41;5051992;28;20227;-71
2023/07/21 01:06:27;;;;;;;10.95;9.77;;;;;;;21.02;78.88;92674.53;5052109;28;20228;-70
2023/07/21 01:08:56;;;;;;;12.25;9.55;;;;;;;20.94;80.00;92672.78;5052233;28;20248;-69
2023/07/21 01:11:24;;;;;;;10.43;9.63;;;;;;;20.96;79.05;92670.59;5051991;28;20228;-70
2023/07/21 01:13:53;;;;;;;12.13;10.00;;;;;;;20.90;78.62;92666.63;5052149;28;20190;-70
2023/07/21 01:16:20;;;;;;;10.00;9.20;;;;;;;20.87;78.77;92662.00;5051833;28;20222;-71
2023/07/21 01:18:45;;;;;;;10.18;9.30;;;;;;;20.75;79.18;92654.84;5053049;28;20292;-70
2023/07/21 01:21:14;;;;;;;11.30;10.02;;;;;;;20.69;79.14;92643.72;5051571;28;20227;-71
2023/07/21 01:23:56;;;;;;;11.70;10.63;;;;;;;20.62;79.93;92643.53;5051879;28;20189;-70
2023/07/21 01:26:22;;;;;;;10.52;9.38;;;;;;;20.62;79.13;92630.25;5051992;28;20256;-70
2023/07/21 01:28:48;;;;;;;11.45;10.10;;;;;;;20.60;79.33;92637.81;5051708;28;20266;-70
2023/07/21 01:31:14;;;;;;;11.55;10.48;;;;;;;20.59;79.34;92644.22;5051386;28;20219;-70
2023/07/21 01:33:41;;;;;;;10.93;10.20;;;;;;;20.49;78.46;92636.75;5051653;28;20217;-70
2023/07/21 01:36:07;;;;;;;11.02;10.13;;;;;;;20.60;79.15;92648.41;5036932;28;20232;-70
2023/07/21 01:38:34;;;;;;;11.30;10.30;;;;;;;20.56;78.81;92652.09;5032089;28;20216;-69
2023/07/21 01:41:00;;;;;;;10.00;9.13;;;;;;;20.50;79.54;92658.72;5044853;28;20277;-71
2023/07/21 01:43:26;;;;;;;9.82;9.00;;;;;;;20.46;79.61;92673.78;5051789;28;20250;-70
2023/07/21 01:45:51;;;;;;;11.23;10.48;;;;;;;20.45;78.98;92677.56;5051282;28;20244;-70
2023/07/21 01:48:17;;;;;;;11.13;10.23;;;;;;;20.16;78.88;92683.13;5055521;28;20220;-70
2023/07/21 01:50:43;;;;;;;12.30;11.27;;;;;;;20.06;77.92;92692.28;5044834;28;20221;-70
2023/07/21 01:53:15;;;;;;;10.90;9.83;;;;;;;20.28;77.53;92697.13;5031881;28;20264;-70
2023/07/21 01:55:52;;;;;;;10.18;9.48;;;;;;;20.39;77.13;92689.47;5042109;28;20218;-70
2023/07/21 01:58:19;;;;;;;10.27;9.40;;;;;;;20.23;76.83;92681.47;5051469;28;20179;-70
2023/07/21 02:00:47;;;;;;;10.95;9.90;;;;;;;20.29;77.46;92674.84;5051061;28;20217;-70
2023/07/21 02:03:15;;;;;;;10.37;9.67;;;;;;;20.54;77.31;92694.09;5053829;28;20198;-70
2023/07/21 02:05:40;;;;;;;10.57;9.50;;;;;;;20.50;76.92;92691.34;5050789;28;20238;-70
2023/07/21 02:08:06;;;;;;;10.35;9.65;;;;;;;20.36;76.58;92680.31;5051155;28;20212;-70
2023/07/21 02:10:31;;;;;;;10.50;9.60;;;;;;;20.37;76.93;92692.47;5051061;28;20236;-70
2023/07/21 02:12:57;;;;;;;10.20;9.38;;;;;;;20.33;77.24;92686.31;5051139;28;20275;-70
2023/07/21 02:15:22;;;;;;;10.93;10.00;;;;;;;20.29;76.58;92690.75;5051063;28;20822;-70
2023/07/21 02:17:48;;;;;;;10.52;9.68;;;;;;;20.20;76.84;92692.72;5049400;28;20301;-70
2023/07/21 02:20:14;;;;;;;10.17;9.37;;;;;;;20.22;77.19;92701.13;5050417;28;20232;-70
2023/07/21 02:22:43;;;;;;;11.15;10.02;;;;;;;20.33;76.73;92702.22;5050800;28;20204;-70
2023/07/21 02:25:15;;;;;;;10.48;9.63;;;;;;;20.44;76.46;92695.34;5089843;28;20243;-70
2023/07/21 02:27:41;;;;;;;9.55;8.93;;;;;;;20.41;76.44;92690.72;5054162;28;20205;-70
2023/07/21 02:30:06;;;;;;;10.57;9.75;;;;;;;20.50;76.30;92693.97;5050322;28;20229;-70
2023/07/21 02:32:32;;;;;;;10.20;9.57;;;;;;;20.45;76.55;92672.25;5050759;28;20196;-70
2023/07/21 02:34:59;;;;;;;11.30;10.13;;;;;;;20.65;76.60;92693.25;5053117;28;20261;-70
2023/07/21 02:37:25;;;;;;;15.07;10.88;;;;;;;20.52;78.37;92678.50;5049168;28;20212;-70
2023/07/21 02:39:51;;;;;;;12.13;10.68;;;;;;;20.66;77.95;92684.22;5050133;28;20261;-70
2023/07/21 02:42:16;;;;;;;10.75;9.38;;;;;;;20.67;76.85;92672.47;5050856;28;20264;-70
2023/07/21 02:44:42;;;;;;;11.45;9.95;;;;;;;20.67;76.74;92675.13;5050233;28;20243;-70
2023/07/21 02:47:09;;;;;;;10.80;9.73;;;;;;;20.78;76.92;92685.28;5050364;28;20195;-70
2023/07/21 02:49:34;;;;;;;12.60;10.13;;;;;;;20.67;77.21;92679.66;5049760;28;20196;-70
2023/07/21 02:51:59;;;;;;;11.65;10.55;;;;;;;20.62;76.73;92670.06;5083164;28;20183;-71
2023/07/21 02:54:25;;;;;;;11.57;10.48;;;;;;;20.65;76.75;92687.19;5049547;28;20273;-70
2023/07/21 02:56:51;;;;;;;11.23;10.18;;;;;;;20.68;76.31;92687.28;5030658;28;20202;-70
2023/07/21 02:59:17;;;;;;;11.48;10.50;;;;;;;20.63;77.38;92687.53;5030572;28;20221;-70
2023/07/21 03:01:54;;;;;;;9.70;8.95;;;;;;;20.44;77.57;92671.47;5048556;28;20215;-69
2023/07/21 03:04:26;;;;;;;13.25;9.70;;;;;;;20.49;77.30;92687.16;5054378;28;20273;-70
2023/07/21 03:06:52;;;;;;;11.15;10.00;;;;;;;20.44;76.73;92687.38;5051579;28;20201;-70
2023/07/21 03:09:18;;;;;;;10.20;9.52;;;;;;;20.32;76.77;92684.78;5050255;28;20274;-70
2023/07/21 03:11:43;;;;;;;10.38;9.55;;;;;;;20.39;76.04;92695.56;5049439;28;20213;-70
2023/07/21 03:14:10;;;;;;;9.88;9.10;;;;;;;20.36;74.91;92693.59;5050273;28;20198;-70
2023/07/21 03:16:35;;;;;;;10.57;9.57;;;;;;;20.37;74.93;92697.78;5031140;28;20220;-70
2023/07/21 03:19:01;;;;;;;10.27;9.40;;;;;;;20.46;75.09;92695.78;5033115;28;20188;-70
2023/07/21 03:21:26;;;;;;;10.95;9.85;;;;;;;20.52;75.00;92698.94;5048013;28;20207;-71
2023/07/21 03:23:52;;;;;;;11.23;10.05;;;;;;;20.42;76.38;92702.09;5049669;28;20181;-70
2023/07/21 03:26:17;;;;;;;10.40;9.50;;;;;;;20.49;75.82;92697.75;5049699;28;20252;-70
2023/07/21 03:28:42;;;;;;;9.82;9.05;;;;;;;20.48;75.57;92698.84;5049823;28;20302;-70
2023/07/21 03:31:09;;;;;;;9.65;8.98;;;;;;;20.44;75.87;92710.47;5049032;28;20915;-70
2023/07/21 03:33:34;;;;;;;10.50;9.60;;;;;;;20.53;76.18;92705.78;5052774;28;20202;-70
2023/07/21 03:36:04;;;;;;;11.40;10.48;;;;;;;20.33;76.95;92702.22;5050509;28;20221;-70
2023/07/21 03:38:33;;;;;;;9.23;8.52;;;;;;;20.39;77.02;92722.09;5049570;28;20189;-70
2023/07/21 03:41:04;;;;;;;9.85;9.15;;;;;;;20.37;76.70;92724.28;5048783;28;20235;-70
2023/07/21 03:43:29;;;;;;;16.05;10.07;;;;;;;20.21;76.72;92726.13;5049706;28;20250;-70
2023/07/21 03:45:59;;;;;;;11.18;9.65;;;;;;;20.32;76.80;92729.84;5049135;28;20255;-71
2023/07/21 03:48:26;;;;;;;10.23;9.27;;;;;;;20.33;76.94;92720.78;5051309;28;20225;-70
2023/07/21 03:50:59;;;;;;;13.15;11.25;;;;;;;20.15;77.66;92716.84;5053006;28;20224;-71
2023/07/21 03:53:26;;;;;;;11.60;10.50;;;;;;;20.22;77.39;92721.56;5049343;28;20212;-70
2023/07/21 03:55:52;;;;;;;8.90;8.20;;;;;;;19.99;80.53;92725.78;5049138;28;20227;-70
2023/07/21 03:58:17;;;;;;;9.88;9.23;;;;;;;19.94;80.79;92716.16;5050044;28;20185;-71
2023/07/21 04:00:42;;;;;;;10.43;9.63;;;;;;;20.21;77.63;92736.72;5051182;28;20224;-70
2023/07/21 04:03:12;;;;;;;9.70;8.90;;;;;;;20.32;76.26;92721.91;5053412;28;20193;-71
2023/07/21 04:05:37;;;;;;;10.48;9.68;;;;;;;20.48;76.68;92741.28;5053364;28;20221;-71
2023/07/21 04:08:03;;;;;;;11.18;10.18;;;;;;;20.49;78.41;92742.84;5053462;28;20210;-70
2023/07/21 04:10:30;;;;;;;8.82;8.27;;;;;;;20.51;79.87;92750.47;5053433;28;20232;-70
2023/07/21 04:12:56;;;;;;;10.35;9.60;;;;;;;20.83;76.98;92735.44;5053007;28;20194;-70
2023/07/21 04:15:22;;;;;;;10.57;9.63;;;;;;;20.86;77.83;92756.75;5053185;28;20240;-71
2023/07/21 04:17:47;;;;;;;10.20;9.05;;;;;;;21.00;78.00;92751.09;5053814;28;20187;-70
2023/07/21 04:20:13;;;;;;;10.90;9.90;;;;;;;21.08;77.89;92755.47;5052773;28;20297;-70
2023/07/21 04:22:39;;;;;;;10.60;9.80;;;;;;;21.20;78.10;92755.44;5052965;28;20201;-70
2023/07/21 04:25:05;;;;;;;10.80;9.38;;;;;;;21.27;76.95;92752.97;5058841;28;20263;-71
2023/07/21 04:27:30;;;;;;;9.80;8.98;;;;;;;21.53;77.11;92754.03;5057983;28;20213;-71
2023/07/21 04:29:56;;;;;;;10.57;9.73;;;;;;;21.70;75.68;92753.69;5052735;28;20233;-70
2023/07/21 04:32:21;;;;;;;13.02;9.48;;;;;;;22.07;73.72;92770.19;5052497;28;20231;-71
2023/07/21 04:34:47;;;;;;;10.48;9.55;;;;;;;22.34;70.04;92761.28;5052698;28;20255;-70
2023/07/21 04:37:13;;;;;;;11.82;10.70;;;;;;;22.31;70.43;92755.88;5052991;28;20199;-70
2023/07/21 04:39:39;;;;;;;10.23;9.35;;;;;;;22.04;71.88;92762.88;5052636;28;20254;-71
2023/07/21 04:42:05;;;;;;;11.50;10.02;;;;;;;22.20;71.83;92750.34;5085330;28;20191;-71
2023/07/21 04:44:31;;;;;;;11.25;10.25;;;;;;;21.99;73.39;92750.59;5052804;28;20219;-71
2023/07/21 04:46:56;;;;;;;10.82;9.85;;;;;;;22.16;72.65;92749.50;5051375;28;20195;-70
2023/07/21 04:49:21;;;;;;;9.95;9.07;;;;;;;22.33;72.92;92753.66;5047886;28;20211;-71
2023/07/21 04:51:47;;;;;;;10.98;9.90;;;;;;;22.41;72.08;92745.50;5059633;28;20200;-71
2023/07/21 04:54:12;;;;;;;10.60;9.60;;;;;;;22.64;71.54;92753.59;5052950;28;20375;-70
2023/07/21 04:56:38;;;;;;;10.65;9.65;;;;;;;22.47;70.58;92749.44;5052676;28;20256;-70
2023/07/21 04:59:04;;;;;;;10.27;9.43;;;;;;;22.48;70.93;92761.59;5052743;28;20222;-70
2023/07/21 05:01:31;;;;;;;11.40;10.32;;;;;;;23.26;68.77;92767.44;5051569;28;20247;-70
2023/07/21 05:03:57;;;;;;;10.77;9.88;;;;;;;22.79;70.89;92760.75;5055358;28;20226;-71
2023/07/21 05:06:23;;;;;;;12.18;9.95;;;;;;;23.38;68.83;92767.28;5051901;28;20224;-70
2023/07/21 05:08:49;;;;;;;11.48;10.38;;;;;;;23.22;70.53;92760.47;5052460;28;20283;-70
2023/07/21 05:11:14;;;;;;;14.88;11.18;;;;;;;23.59;69.34;92773.00;5083677;28;20213;-71
2023/07/21 05:13:40;;;;;;;9.60;8.80;;;;;;;23.92;66.69;92771.63;5052554;28;20262;-71
2023/07/21 05:16:05;;;;;;;11.00;10.00;;;;;;;23.59;68.97;92743.69;5051909;28;20228;-70
2023/07/21 05:18:30;;;;;;;10.25;9.50;;;;;;;23.60;68.50;92769.22;5051942;28;20187;-70
2023/07/21 05:20:56;;;;;;;10.85;9.95;;;;;;;23.45;67.82;92772.75;5064618;28;20224;-70
2023/07/21 05:23:21;;;;;;;9.98;9.27;;;;;;;23.74;67.38;92774.00;5052490;28;20215;-71
2023/07/21 05:25:47;;;;;;;10.27;9.43;;;;;;;23.84;66.98;92767.31;5084058;28;20227;-70
2023/07/21 05:28:13;;;;;;;10.27;9.27;;;;;;;23.80;68.18;92777.16;5052729;28;20254;-71
2023/07/21 05:30:42;;;;;;;11.20;9.73;;;;;;;23.47;68.49;92765.16;5041320;28;20258;-70
2023/07/21 05:33:07;;;;;;;10.98;9.95;;;;;;;23.80;68.55;92777.91;5032967;28;20190;-71
2023/07/21 05:35:33;;;;;;;9.90;8.98;;;;;;;24.21;67.97;92779.00;5041634;28;20268;-71
2023/07/21 05:37:58;;;;;;;11.18;9.50;;;;;;;24.35;68.27;92774.66;5052232;28;20180;-70
2023/07/21 05:40:23;;;;;;;12.50;11.35;;;;;;;24.91;65.94;92783.47;5051305;28;20236;-70
2023/07/21 05:42:49;;;;;;;11.00;10.00;;;;;;;24.75;66.65;92780.19;5051993;28;20188;-70
2023/07/21 05:45:15;;;;;;;12.70;10.85;;;;;;;24.58;67.69;92786.03;5064783;28;20237;-71
2023/07/21 05:47:41;;;;;;;12.90;11.68;;;;;;;24.58;67.28;92785.25;5051716;28;20247;-71
2023/07/21 05:50:07;;;;;;;15.82;11.25;;;;;;;25.17;66.14;92793.31;5063237;28;20227;-71
2023/07/21 05:52:33;;;;;;;11.75;10.75;;;;;;;25.78;64.26;92799.00;5051680;28;20178;-71
2023/07/21 05:54:58;;;;;;;13.55;12.13;;;;;;;28.36;56.30;92813.44;5045832;28;20245;-71
2023/07/21 05:57:24;;;;;;;14.07;10.20;;;;;;;33.03;41.98;92822.38;5032113;28;20209;-70
2023/07/21 05:59:49;;;;;;;13.93;10.45;;;;;;;34.69;38.93;92839.53;5034861;28;20242;-71
2023/07/21 06:02:14;;;;;;;12.65;9.88;;;;;;;35.44;35.76;92829.88;5051676;28;20224;-70
2023/07/21 06:04:40;;;;;;;11.27;9.75;;;;;;;38.32;31.18;92837.00;5050794;28;20226;-71
2023/07/21 06:07:05;;;;;;;10.07;9.20;;;;;;;38.81;29.70;92839.03;5050455;28;20273;-71
2023/07/21 06:09:30;;;;;;;9.88;8.60;;;;;;;38.12;30.64;92828.41;5050973;28;20209;-71
2023/07/21 06:11:56;;;;;;;14.15;8.95;;;;;;;40.64;26.79;92853.84;5051389;28;20737;-71
2023/07/21 06:14:21;;;;;;;9.52;8.10;;;;;;;40.58;26.99;92844.75;5051480;28;20182;-71
2023/07/21 06:16:46;;;;;;;13.85;9.20;;;;;;;38.49;29.64;92832.09;5030644;28;20207;-71
2023/07/21 06:19:12;;;;;;;9.55;8.55;;;;;;;40.36;26.66;92836.00;5031177;28;20190;-71
2023/07/21 06:21:37;;;;;;;9.27;7.88;;;;;;;39.98;27.30;92828.28;5030716;28;20210;-71
2023/07/21 06:24:03;;;;;;;14.98;8.25;;;;;;;39.66;27.38;92832.38;5030245;28;20179;-71
2023/07/21 06:26:28;;;;;;;8.50;7.90;;;;;;;38.52;29.65;92825.72;5030982;28;20218;-71
2023/07/21 06:28:54;;;;;;;17.23;9.10;;;;;;;41.34;25.82;92836.78;5031589;28;20202;-71
2023/07/21 06:31:21;;;;;;;12.23;7.57;;;;;;;41.13;25.65;92835.84;5032883;28;20225;-71
2023/07/21 06:33:47;;;;;;;13.38;8.70;;;;;;;38.43;28.84;92810.06;5037381;28;20191;-71
2023/07/21 06:36:12;;;;;;;10.25;8.10;;;;;;;39.81;27.71;92810.66;5030625;28;20317;-71
2023/07/21 06:38:38;;;;;;;14.00;8.82;;;;;;;36.22;31.80;92814.13;5031084;28;21183;-71
2023/07/21 06:41:04;;;;;;;9.00;8.10;;;;;;;38.03;30.13;92816.66;5029438;28;20241;-71
2023/07/21 06:43:30;;;;;;;12.73;8.57;;;;;;;40.03;27.00;92811.25;5031050;28;20202;-71
2023/07/21 06:45:56;;;;;;;10.50;9.13;;;;;;;39.26;27.73;92820.03;5044846;28;20226;-71
2023/07/21 06:48:21;;;;;;;9.77;8.57;;;;;;;34.95;34.73;92800.50;5056743;28;20241;-71
2023/07/21 06:50:47;;;;;;;13.18;9.60;;;;;;;32.63;39.64;92797.88;5051389;28;20226;-71
2023/07/21 06:53:13;;;;;;;10.23;9.23;;;;;;;30.90;44.21;92787.75;5050693;28;20181;-71
2023/07/21 06:55:39;;;;;;;14.95;10.25;;;;;;;29.20;49.10;92791.84;5049989;28;20241;-71
2023/07/21 06:58:04;;;;;;;17.23;10.43;;;;;;;27.20;56.68;92780.94;5050885;28;20182;-71
2023/07/21 07:00:29;;;;;;;13.57;11.05;;;;;;;27.64;58.13;92780.72;5049236;28;20233;-71
2023/07/21 07:02:56;;;;;;;13.15;10.43;;;;;;;28.30;54.19;92787.34;5049244;28;20194;-71
2023/07/21 07:05:22;;;;;;;12.73;11.18;;;;;;;28.10;54.85;92776.22;5047432;28;20691;-71
2023/07/21 07:07:52;;;;;;;16.05;11.23;;;;;;;27.53;57.38;92783.38;5030470;28;20209;-71
2023/07/21 07:10:17;;;;;;;11.85;10.57;;;;;;;28.09;55.77;92782.75;5029011;28;20241;-71
2023/07/21 07:12:44;;;;;;;19.80;11.88;;;;;;;26.84;58.44;92775.75;5030341;28;20206;-71
2023/07/21 07:15:10;;;;;;;12.18;10.57;;;;;;;27.15;58.95;92783.19;5029915;28;20917;-71
2023/07/21 07:17:36;;;;;;;13.15;11.70;;;;;;;26.77;59.59;92774.56;5030365;28;20186;-71
2023/07/21 07:20:04;;;;;;;13.88;12.43;;;;;;;26.77;61.25;92765.00;5041614;28;20293;-70
2023/07/21 07:22:29;;;;;;;21.80;12.95;;;;;;;26.83;60.59;92771.53;5049966;28;20185;-71
2023/07/21 07:24:55;;;;;;;13.27;11.48;;;;;;;27.26;58.93;92767.94;5049790;28;20264;-71
2023/07/21 07:27:20;;;;;;;13.73;12.40;;;;;;;27.52;56.93;92789.88;5050142;28;20210;-70
2023/07/21 07:29:46;;;;;;;16.25;13.07;;;;;;;27.59;55.92;92781.06;5049579;28;20233;-70
2023/07/21 07:32:13;;;;;;;13.18;11.88;;;;;;;27.02;58.27;92773.94;5057998;28;20207;-71
2023/07/21 07:34:40;;;;;;;16.08;11.88;;;;;;;26.27;59.65;92761.97;5049359;28;20178;-71
2023/07/21 07:37:06;;;;;;;15.90;13.20;;;;;;;27.01;57.61;92781.22;5049874;28;20182;-71
2023/07/21 07:39:32;;;;;;;12.95;11.60;;;;;;;26.81;59.21;92779.19;5049100;28;20186;-71
2023/07/21 07:41:57;;;;;;;14.23;11.45;;;;;;;27.13;56.71;92780.13;5049952;28;20862;-71
2023/07/21 07:44:23;;;;;;;14.32;11.77;;;;;;;27.66;54.78;92781.84;5049086;28;20186;-71
2023/07/21 07:46:48;;;;;;;13.43;12.20;;;;;;;27.54;55.48;92778.75;5060078;28;20186;-71
2023/07/21 07:49:13;;;;;;;13.82;11.60;;;;;;;27.30;55.80;92776.78;5051230;28;20305;-71
2023/07/21 07:51:39;;;;;;;13.15;12.05;;;;;;;27.18;56.78;92777.06;5049181;28;20222;-71
2023/07/21 07:54:05;;;;;;;13.48;11.57;;;;;;;26.86;55.72;92766.22;5048991;28;20224;-71
2023/07/21 07:56:31;;;;;;;12.23;11.02;;;;;;;27.11;56.28;92767.09;5049110;28;20218;-71
2023/07/21 07:58:57;;;;;;;14.63;11.98;;;;;;;27.15;56.10;92777.81;5049868;28;21225;-71
2023/07/21 08:01:23;;;;;;;13.02;11.43;;;;;;;27.57;53.75;92776.09;5048569;28;20217;-71
2023/07/21 08:03:49;;;;;;;17.35;12.73;;;;;;;27.20;55.74;92770.19;5049157;28;20190;-70
2023/07/21 08:06:15;;;;;;;12.05;10.70;;;;;;;27.50;52.76;92780.69;5049368;28;20226;-71
2023/07/21 08:08:41;;;;;;;11.75;10.55;;;;;;;27.78;52.59;92775.38;5049269;28;20212;-71
2023/07/21 08:11:07;;;;;;;11.98;10.88;;;;;;;27.89;52.93;92778.88;5049470;28;20305;-71
2023/07/21 08:13:33;;;;;;;15.43;10.93;;;;;;;28.05;54.75;92776.56;5048125;28;20178;-71
2023/07/21 08:15:59;;;;;;;19.48;11.93;;;;;;;27.78;53.18;92778.81;5054657;28;20222;-71
2023/07/21 08:18:24;;;;;;;12.07;10.57;;;;;;;28.24;52.81;92784.28;5051909;28;20185;-71
2023/07/21 08:20:51;;;;;;;15.93;10.73;;;;;;;28.32;48.96;92788.50;5049065;28;20217;-71
2023/07/21 08:23:16;;;;;;;12.45;10.57;;;;;;;27.92;50.46;92778.88;5043032;28;20208;-71
2023/07/21 08:25:42;;;;;;;11.50;9.77;;;;;;;28.29;50.66;92781.22;5048980;28;20679;-71
2023/07/21 08:28:08;;;;;;;11.32;9.70;;;;;;;28.44;49.33;92781.97;5049563;28;20206;-71
2023/07/21 08:30:35;;;;;;;12.65;10.15;;;;;;;27.76;50.17;92781.13;5048663;28;20281;-71
2023/07/21 08:33:01;;;;;;;15.10;9.63;;;;;;;28.22;49.06;92781.97;5061646;28;20735;-71
2023/07/21 08:35:27;;;;;;;11.90;9.63;;;;;;;28.46;50.51;92768.91;5039852;28;20227;-71
2023/07/21 08:37:53;;;;;;;13.18;9.77;;;;;;;28.62;47.53;92772.78;5029409;28;20246;-71
2023/07/21 08:40:22;;;;;;;10.98;9.90;;;;;;;28.66;47.94;92778.91;5036926;28;20236;-71
2023/07/21 08:42:49;;;;;;;15.57;10.27;;;;;;;28.59;48.29;92781.63;5049340;28;20190;-71
2023/07/21 08:45:15;;;;;;;19.05;10.38;;;;;;;28.12;50.20;92773.91;5048565;28;20226;-71
2023/07/21 08:47:41;;;;;;;11.50;10.23;;;;;;;28.54;48.91;92776.63;5052082;28;20217;-71
2023/07/21 08:50:07;;;;;;;12.30;9.35;;;;;;;28.65;49.50;92782.75;5052041;28;20241;-71
2023/07/21 08:52:33;;;;;;;11.80;10.50;;;;;;;28.31;47.83;92781.59;5052719;28;20249;-71
2023/07/21 08:54:59;;;;;;;11.27;10.15;;;;;;;28.46;47.54;92748.19;5052002;28;20248;-71
2023/07/21 08:57:25;;;;;;;10.63;9.65;;;;;;;28.80;47.51;92795.00;5052783;28;20220;-71
2023/07/21 08:59:54;;;;;;;16.40;10.20;;;;;;;28.39;48.08;92790.41;5052581;28;20291;-71
2023/07/21 09:02:40;;;;;;;11.00;9.70;;;;;;;28.34;50.14;92788.88;5062304;28;20254;-70
2023/07/21 09:05:05;;;;;;;10.98;9.65;;;;;;;28.68;49.89;92778.50;5051815;28;20455;-71
2023/07/21 09:07:31;;;;;;;16.83;10.32;;;;;;;29.23;47.39;92784.94;5051752;28;20190;-71
2023/07/21 09:09:56;;;;;;;12.60;9.60;;;;;;;29.24;47.41;92764.94;5051527;28;20222;-71
2023/07/21 09:12:22;;;;;;;12.68;9.55;;;;;;;29.32;46.37;92780.69;5052726;28;20508;-71
2023/07/21 09:14:47;;;;;;;23.40;10.93;;;;;;;29.52;46.36;92784.44;5051507;28;20228;-71
2023/07/21 09:17:15;;;;;;;10.38;9.38;;;;;;;29.28;47.43;92787.22;5059936;28;20217;-70
2023/07/21 09:19:42;;;;;;;10.60;9.48;;;;;;;29.04;47.10;92771.91;5051645;28;20248;-71
2023/07/21 09:22:09;;;;;;;14.10;9.70;;;;;;;29.22;47.18;92762.66;5052622;28;20186;-71
2023/07/21 09:24:37;;;;;;;14.02;9.32;;;;;;;29.29;50.14;92772.63;5051543;28;20178;-71
2023/07/21 09:27:11;;;;;;;11.27;9.82;;;;;;;29.17;46.51;92743.47;5052025;28;20186;-72
2023/07/21 09:29:37;;;;;;;12.50;10.20;;;;;;;29.36;47.44;92783.34;5051722;28;20204;-71
2023/07/21 09:32:10;;;;;;;10.57;9.68;;;;;;;29.62;45.64;92775.53;5061760;28;20230;-71
2023/07/21 09:34:54;;;;;;;10.63;9.60;;;;;;;29.18;47.05;92767.28;5051286;28;20185;-71
2023/07/21 09:37:21;;;;;;;11.68;10.57;;;;;;;29.51;45.72;92764.06;5052001;28;20190;-71
2023/07/21 09:39:52;;;;;;;10.85;9.73;;;;;;;29.44;45.23;92768.72;5051681;28;20239;-71
2023/07/21 09:42:22;;;;;;;11.95;9.88;;;;;;;29.67;46.00;92771.69;5051533;28;20249;-70
2023/07/21 09:44:48;;;;;;;10.65;9.57;;;;;;;29.45;45.28;92764.84;5051229;28;20222;-71
2023/07/21 09:47:15;;;;;;;11.25;10.00;;;;;;;29.15;45.79;92733.09;5051974;28;20189;-71
2023/07/21 09:49:40;;;;;;;11.23;10.02;;;;;;;29.16;46.72;92760.75;5058148;28;20198;-71
2023/07/21 09:52:08;;;;;;;10.77;9.88;;;;;;;29.52;46.56;92764.81;5051564;28;20169;-71
2023/07/21 09:54:35;;;;;;;10.27;9.45;;;;;;;29.61;46.75;92768.63;5049695;28;20192;-72
2023/07/21 09:57:03;;;;;;;11.88;9.98;;;;;;;29.73;46.78;92763.97;5030956;28;20208;-71
2023/07/21 09:59:34;;;;;;;11.10;9.18;;;;;;;29.53;47.53;92755.59;5032313;28;20194;-72
2023/07/21 10:01:59;;;;;;;11.20;10.05;;;;;;;29.82;47.07;92759.69;5061317;28;20248;-71
2023/07/21 10:04:27;;;;;;;12.85;9.50;;;;;;;30.00;47.02;92763.03;5050381;28;20235;-71
2023/07/21 10:06:56;;;;;;;10.98;10.00;;;;;;;29.82;47.30;92761.63;5031421;28;20189;-72
2023/07/21 10:09:22;;;;;;;11.82;10.32;;;;;;;29.54;46.60;92757.88;5031593;28;20211;-71
2023/07/21 10:11:47;;;;;;;19.25;9.63;;;;;;;29.40;49.43;92757.94;5030915;28;21285;-71
2023/07/21 10:14:45;;;;;;;14.95;9.45;;;;;;;29.93;47.20;92751.53;5031781;28;20190;-71
2023/07/21 10:17:22;;;;;;;10.13;9.32;;;;;;;30.27;47.98;92763.25;4998867;28;20226;-71
2023/07/21 10:20:06;;;;;;;11.27;10.18;;;;;;;30.34;45.71;92765.88;5030144;28;20240;-71
2023/07/21 10:22:31;;;;;;;15.27;9.70;;;;;;;30.43;46.32;92763.50;5031065;28;20687;-70
2023/07/21 10:24:56;;;;;;;10.48;9.40;;;;;;;30.23;44.77;92759.84;5031009;28;20242;-71
2023/07/21 10:27:23;;;;;;;11.95;10.68;;;;;;;29.52;46.60;92754.84;5030298;28;20182;-71
2023/07/21 10:30:15;;;;;;;11.60;10.40;;;;;;;30.06;44.89;92757.97;5033129;28;20317;-71
2023/07/21 10:32:41;;;;;;;12.32;10.98;;;;;;;30.05;44.57;92754.53;5033524;28;20212;-71
2023/07/21 10:35:30;;;;;;;15.35;9.55;;;;;;;29.88;46.52;92746.56;5029308;28;20224;-71
2023/07/21 10:38:10;;;;;;;12.98;9.85;;;;;;;29.61;46.02;92746.31;5029554;28;20213;-72
2023/07/21 10:40:37;;;;;;;14.05;10.73;;;;;;;30.21;45.34;92735.94;5030295;28;20230;-71
2023/07/21 10:43:03;;;;;;;13.88;10.95;;;;;;;30.51;43.34;92749.56;5030980;28;20269;-72
2023/07/21 10:45:28;;;;;;;15.40;9.55;;;;;;;30.34;45.98;92755.09;5046397;28;20226;-71
2023/07/21 10:47:54;;;;;;;10.07;9.13;;;;;;;30.65;44.83;92751.34;5050579;28;20209;-71
2023/07/21 10:50:19;;;;;;;15.55;10.30;;;;;;;30.01;45.31;92748.41;5049724;28;20221;-71
2023/07/21 10:52:47;;;;;;;17.08;9.80;;;;;;;30.24;45.92;92745.19;5050418;28;20201;-71
2023/07/21 10:55:19;;;;;;;12.85;10.07;;;;;;;30.68;45.14;92742.50;5049851;28;20279;-71
2023/07/21 10:57:45;;;;;;;11.60;10.32;;;;;;;30.64;45.05;92739.03;5050410;28;20178;-71
2023/07/21 11:00:11;;;;;;;17.80;10.32;;;;;;;30.76;44.99;92744.72;5055304;28;20254;-71
2023/07/21 11:02:40;;;;;;;10.38;9.40;;;;;;;30.60;45.12;92738.34;5050159;28;20184;-71
2023/07/21 11:05:06;;;;;;;14.93;10.57;;;;;;;30.57;46.19;92736.44;5049796;28;20214;-71
2023/07/21 11:07:31;;;;;;;12.45;9.10;;;;;;;30.45;43.90;92739.59;5050404;28;20197;-71
2023/07/21 11:10:00;;;;;;;11.02;9.60;;;;;;;30.73;42.11;92723.16;5048059;28;20309;-71
2023/07/21 11:12:25;;;;;;;11.55;9.27;;;;;;;30.90;37.34;92736.50;5049489;28;20186;-71
2023/07/21 11:14:50;;;;;;;11.05;9.60;;;;;;;30.93;38.32;92727.59;5054543;28;20214;-71
2023/07/21 11:17:16;;;;;;;12.48;9.35;;;;;;;30.95;38.91;92719.09;5050250;28;20238;-71
2023/07/21 11:19:41;;;;;;;15.25;10.07;;;;;;;30.85;38.88;92711.91;5049431;28;20225;-71